CCA308 ZUUU-ZGGG
Flight info
| Callsign | CCA308 |
|---|---|
| Flight time | N/A |
| Altitude | 41100 |
| Route | IDBOR9W IDBOR B330 KWE W181 DUDIT A599 GYA GYA9 |
| Aircraft | A359/H-SDE2E3GHIJ3J4J5LM1ORWXY/LB1D1 |
Departure
| Time | 2026-05-01 10:30 |
|---|---|
| Airport | Chengdu Shuangliu International Airport (ZUUU) |
Arrival
| Time | N/A |
|---|---|
| Airport | Guangzhou Baiyun International Airport (ZGGG) |
| Time | Latitude | Longitude | Altitude | Speed | Heading |
|---|---|---|---|---|---|
| 2026-05-01 10:09 | 30.56604 | 103.95018 | 1654 ft | 0 kts | 205° |
| 2026-05-01 10:20 | 30.56617 | 103.95024 | 1653 ft | 4 kts | 205° |
| 2026-05-01 10:20 | 30.56641 | 103.95038 | 1653 ft | 4 kts | 209° |
| 2026-05-01 10:20 | 30.56662 | 103.95056 | 1653 ft | 4 kts | 240° |
| 2026-05-01 10:21 | 30.56666 | 103.95073 | 1653 ft | 1 kts | 292° |
| 2026-05-01 10:21 | 30.56664 | 103.95076 | 1653 ft | 0 kts | 292° |
| 2026-05-01 10:24 | 30.56700 | 103.94976 | 1653 ft | 15 kts | 292° |
| 2026-05-01 10:25 | 30.56799 | 103.94695 | 1653 ft | 20 kts | 291° |
| 2026-05-01 10:25 | 30.56841 | 103.94452 | 1654 ft | 13 kts | 224° |
| 2026-05-01 10:26 | 30.56756 | 103.94407 | 1666 ft | 15 kts | 201° |
| 2026-05-01 10:26 | 30.56653 | 103.94360 | 1666 ft | 17 kts | 204° |
| 2026-05-01 10:26 | 30.56414 | 103.94245 | 1666 ft | 18 kts | 202° |
| 2026-05-01 10:27 | 30.56303 | 103.94161 | 1654 ft | 6 kts | 263° |
| 2026-05-01 10:27 | 30.56316 | 103.94109 | 1654 ft | 0 kts | 292° |
| 2026-05-01 10:28 | 30.56366 | 103.94019 | 1654 ft | 6 kts | 345° |
| 2026-05-01 10:28 | 30.56396 | 103.94027 | 1668 ft | 0 kts | 21° |
| 2026-05-01 10:29 | 30.56434 | 103.94045 | 1669 ft | 29 kts | 22° |
| 2026-05-01 10:29 | 30.56860 | 103.94242 | 1663 ft | 101 kts | 22° |
| 2026-05-01 10:30 | 30.58842 | 103.95161 | 2129 ft | 176 kts | 22° |
| 2026-05-01 10:30 | 30.60832 | 103.96203 | 3932 ft | 142 kts | 26° |
| 2026-05-01 10:31 | 30.62824 | 103.97250 | 4553 ft | 174 kts | 22° |
| 2026-05-01 10:31 | 30.65366 | 103.98299 | 5062 ft | 216 kts | 21° |
| 2026-05-01 10:32 | 30.68068 | 104.00289 | 5731 ft | 250 kts | 53° |
| 2026-05-01 10:32 | 30.69044 | 104.02001 | 6263 ft | 258 kts | 57° |
| 2026-05-01 10:32 | 30.70941 | 104.05685 | 7354 ft | 270 kts | 65° |
| 2026-05-01 10:33 | 30.71045 | 104.09998 | 8498 ft | 282 kts | 112° |
| 2026-05-01 10:33 | 30.68210 | 104.13031 | 9789 ft | 288 kts | 162° |
| 2026-05-01 10:34 | 30.66239 | 104.13319 | 10450 ft | 285 kts | 181° |
| 2026-05-01 10:34 | 30.64256 | 104.13247 | 11057 ft | 286 kts | 184° |
| 2026-05-01 10:34 | 30.62255 | 104.13139 | 11562 ft | 290 kts | 184° |
| 2026-05-01 10:35 | 30.58197 | 104.12950 | 12771 ft | 292 kts | 184° |
| 2026-05-01 10:35 | 30.56164 | 104.12867 | 13373 ft | 293 kts | 184° |
| 2026-05-01 10:35 | 30.54125 | 104.12786 | 13889 ft | 294 kts | 185° |
| 2026-05-01 10:35 | 30.52066 | 104.12707 | 14328 ft | 298 kts | 185° |
| 2026-05-01 10:36 | 30.47875 | 104.12499 | 15206 ft | 304 kts | 189° |
| 2026-05-01 10:36 | 30.45817 | 104.11932 | 15571 ft | 307 kts | 202° |
| 2026-05-01 10:36 | 30.43793 | 104.11023 | 15802 ft | 318 kts | 205° |
| 2026-05-01 10:37 | 30.41739 | 104.10044 | 16030 ft | 328 kts | 205° |
| 2026-05-01 10:37 | 30.37384 | 104.07985 | 16440 ft | 347 kts | 204° |
| 2026-05-01 10:37 | 30.35116 | 104.06923 | 16653 ft | 356 kts | 204° |
| 2026-05-01 10:38 | 30.32770 | 104.05875 | 16838 ft | 366 kts | 201° |
| 2026-05-01 10:38 | 30.30280 | 104.05119 | 17010 ft | 376 kts | 193° |
| 2026-05-01 10:38 | 30.27634 | 104.04841 | 17205 ft | 387 kts | 183° |
| 2026-05-01 10:38 | 30.24927 | 104.05108 | 17487 ft | 395 kts | 173° |
| 2026-05-01 10:39 | 30.22260 | 104.05931 | 17788 ft | 403 kts | 163° |
| 2026-05-01 10:39 | 30.19707 | 104.07320 | 18071 ft | 410 kts | 152° |
| 2026-05-01 10:39 | 30.17376 | 104.09255 | 18364 ft | 416 kts | 142° |
| 2026-05-01 10:39 | 30.15357 | 104.11677 | 18608 ft | 423 kts | 132° |
| 2026-05-01 10:40 | 30.13455 | 104.14274 | 18876 ft | 424 kts | 135° |
| 2026-05-01 10:40 | 30.11312 | 104.16606 | 19166 ft | 423 kts | 143° |
| 2026-05-01 10:40 | 30.09013 | 104.18732 | 19444 ft | 424 kts | 145° |
| 2026-05-01 10:40 | 30.06676 | 104.20833 | 19713 ft | 426 kts | 146° |
| 2026-05-01 10:41 | 30.04335 | 104.22928 | 20047 ft | 425 kts | 145° |
| 2026-05-01 10:41 | 30.01999 | 104.25018 | 20426 ft | 425 kts | 145° |
| 2026-05-01 10:41 | 29.97292 | 104.29220 | 20933 ft | 430 kts | 145° |
| 2026-05-01 10:42 | 29.94918 | 104.31338 | 21194 ft | 432 kts | 145° |
| 2026-05-01 10:42 | 29.92531 | 104.33466 | 21456 ft | 435 kts | 145° |
| 2026-05-01 10:42 | 29.90167 | 104.35572 | 21727 ft | 437 kts | 146° |
| 2026-05-01 10:42 | 29.87757 | 104.37717 | 21956 ft | 439 kts | 145° |
| 2026-05-01 10:43 | 29.85297 | 104.39905 | 22186 ft | 442 kts | 145° |
| 2026-05-01 10:43 | 29.82888 | 104.42047 | 22436 ft | 444 kts | 145° |
| 2026-05-01 10:43 | 29.80438 | 104.44224 | 22689 ft | 446 kts | 145° |
| 2026-05-01 10:43 | 29.77975 | 104.46412 | 22930 ft | 449 kts | 145° |
| 2026-05-01 10:44 | 29.75493 | 104.48614 | 23188 ft | 451 kts | 145° |
| 2026-05-01 10:44 | 29.73008 | 104.50818 | 23400 ft | 453 kts | 145° |
| 2026-05-01 10:44 | 29.70507 | 104.53034 | 23610 ft | 455 kts | 146° |
| 2026-05-01 10:44 | 29.67991 | 104.55263 | 23829 ft | 456 kts | 146° |
| 2026-05-01 10:45 | 29.65473 | 104.57492 | 24044 ft | 458 kts | 146° |
| 2026-05-01 10:45 | 29.62942 | 104.59730 | 24258 ft | 460 kts | 146° |
| 2026-05-01 10:45 | 29.60398 | 104.61980 | 24462 ft | 462 kts | 146° |
| 2026-05-01 10:45 | 29.57847 | 104.64234 | 24681 ft | 463 kts | 146° |
| 2026-05-01 10:46 | 29.55288 | 104.66493 | 24906 ft | 465 kts | 146° |
| 2026-05-01 10:46 | 29.52717 | 104.68760 | 25115 ft | 467 kts | 146° |
| 2026-05-01 10:46 | 29.50143 | 104.71030 | 25335 ft | 468 kts | 146° |
| 2026-05-01 10:46 | 29.47555 | 104.73310 | 25554 ft | 470 kts | 146° |
| 2026-05-01 10:47 | 29.44956 | 104.75598 | 25763 ft | 472 kts | 146° |
| 2026-05-01 10:47 | 29.42346 | 104.77894 | 25999 ft | 473 kts | 147° |
| 2026-05-01 10:47 | 29.39728 | 104.80196 | 26219 ft | 475 kts | 147° |
| 2026-05-01 10:47 | 29.37099 | 104.82507 | 26436 ft | 477 kts | 147° |
| 2026-05-01 10:48 | 29.34433 | 104.84769 | 26670 ft | 477 kts | 150° |
| 2026-05-01 10:48 | 29.32560 | 104.86078 | 26814 ft | 474 kts | 156° |
| 2026-05-01 10:48 | 29.28604 | 104.88294 | 27126 ft | 473 kts | 160° |
| 2026-05-01 10:48 | 29.26615 | 104.89317 | 27281 ft | 474 kts | 161° |
| 2026-05-01 10:49 | 29.23590 | 104.90824 | 27530 ft | 475 kts | 161° |
| 2026-05-01 10:49 | 29.19512 | 104.92828 | 27844 ft | 478 kts | 162° |
| 2026-05-01 10:49 | 29.17487 | 104.93826 | 27996 ft | 479 kts | 162° |
| 2026-05-01 10:49 | 29.14428 | 104.95341 | 28247 ft | 481 kts | 161° |
| 2026-05-01 10:50 | 29.11353 | 104.96876 | 28481 ft | 483 kts | 161° |
| 2026-05-01 10:50 | 29.08260 | 104.98428 | 28697 ft | 486 kts | 161° |
| 2026-05-01 10:50 | 29.05168 | 104.99988 | 28925 ft | 488 kts | 161° |
| 2026-05-01 10:50 | 29.02057 | 105.01561 | 29163 ft | 490 kts | 161° |
| 2026-05-01 10:51 | 28.98932 | 105.03141 | 29406 ft | 492 kts | 161° |
| 2026-05-01 10:51 | 28.95795 | 105.04726 | 29615 ft | 494 kts | 161° |
| 2026-05-01 10:51 | 28.92640 | 105.06320 | 29847 ft | 496 kts | 161° |
| 2026-05-01 10:51 | 28.89472 | 105.07912 | 30049 ft | 498 kts | 161° |
| 2026-05-01 10:52 | 28.86289 | 105.09503 | 30256 ft | 500 kts | 161° |
| 2026-05-01 10:52 | 28.83097 | 105.11094 | 30491 ft | 502 kts | 161° |
| 2026-05-01 10:52 | 28.79889 | 105.12693 | 30723 ft | 504 kts | 161° |
| 2026-05-01 10:52 | 28.76717 | 105.14277 | 30940 ft | 506 kts | 161° |
| 2026-05-01 10:53 | 28.73526 | 105.16035 | 31156 ft | 511 kts | 158° |
| 2026-05-01 10:53 | 28.70387 | 105.17945 | 31380 ft | 514 kts | 156° |
| 2026-05-01 10:53 | 28.67250 | 105.19923 | 31583 ft | 516 kts | 156° |
| 2026-05-01 10:53 | 28.64107 | 105.21909 | 31810 ft | 517 kts | 156° |
| 2026-05-01 10:54 | 28.60951 | 105.23882 | 32027 ft | 518 kts | 156° |
| 2026-05-01 10:54 | 28.57786 | 105.25833 | 32207 ft | 520 kts | 156° |
| 2026-05-01 10:54 | 28.54588 | 105.27784 | 32409 ft | 522 kts | 157° |
| 2026-05-01 10:54 | 28.51379 | 105.29726 | 32566 ft | 524 kts | 157° |
| 2026-05-01 10:55 | 28.48146 | 105.31672 | 32705 ft | 527 kts | 157° |
| 2026-05-01 10:55 | 28.44900 | 105.33625 | 32899 ft | 529 kts | 157° |
| 2026-05-01 10:55 | 28.41643 | 105.35584 | 33170 ft | 528 kts | 157° |
| 2026-05-01 10:55 | 28.38396 | 105.37538 | 33462 ft | 528 kts | 157° |
| 2026-05-01 10:56 | 28.35152 | 105.39489 | 33726 ft | 528 kts | 157° |
| 2026-05-01 10:56 | 28.31913 | 105.41436 | 34011 ft | 527 kts | 157° |
| 2026-05-01 10:56 | 28.28677 | 105.43381 | 34316 ft | 526 kts | 157° |
| 2026-05-01 10:56 | 28.25447 | 105.45320 | 34645 ft | 524 kts | 157° |
| 2026-05-01 10:57 | 28.22229 | 105.47253 | 34980 ft | 523 kts | 157° |
| 2026-05-01 10:57 | 28.19014 | 105.49181 | 35322 ft | 522 kts | 157° |
| 2026-05-01 10:57 | 28.15813 | 105.51103 | 35657 ft | 520 kts | 157° |
| 2026-05-01 10:57 | 28.12613 | 105.53019 | 35981 ft | 520 kts | 157° |
| 2026-05-01 10:58 | 28.09416 | 105.54928 | 36306 ft | 518 kts | 157° |
| 2026-05-01 10:58 | 28.06145 | 105.56582 | 36594 ft | 512 kts | 166° |
| 2026-05-01 10:58 | 28.02752 | 105.57680 | 36927 ft | 502 kts | 174° |
| 2026-05-01 10:58 | 27.99330 | 105.58389 | 37272 ft | 499 kts | 176° |
| 2026-05-01 10:59 | 27.95904 | 105.58985 | 37613 ft | 497 kts | 177° |
| 2026-05-01 10:59 | 27.92489 | 105.59523 | 37936 ft | 495 kts | 178° |
| 2026-05-01 10:59 | 27.89081 | 105.60034 | 38232 ft | 494 kts | 178° |
| 2026-05-01 10:59 | 27.85670 | 105.60542 | 38465 ft | 494 kts | 178° |
| 2026-05-01 11:00 | 27.82274 | 105.61171 | 38714 ft | 497 kts | 173° |
| 2026-05-01 11:00 | 27.78934 | 105.62289 | 38931 ft | 505 kts | 165° |
| 2026-05-01 11:00 | 27.75717 | 105.63930 | 39140 ft | 509 kts | 159° |
| 2026-05-01 11:00 | 27.72565 | 105.65752 | 39365 ft | 510 kts | 158° |
| 2026-05-01 11:01 | 27.69481 | 105.67620 | 39565 ft | 510 kts | 158° |
| 2026-05-01 11:01 | 27.66378 | 105.69529 | 39815 ft | 509 kts | 158° |
| 2026-05-01 11:01 | 27.63246 | 105.71343 | 40155 ft | 504 kts | 160° |
| 2026-05-01 11:01 | 27.60094 | 105.73064 | 40366 ft | 504 kts | 161° |
| 2026-05-01 11:02 | 27.56922 | 105.74744 | 40594 ft | 503 kts | 161° |
| 2026-05-01 11:02 | 27.50589 | 105.78088 | 40692 ft | 502 kts | 161° |
| 2026-05-01 11:03 | 27.44277 | 105.81471 | 40705 ft | 502 kts | 161° |
| 2026-05-01 11:03 | 27.37963 | 105.84860 | 40718 ft | 503 kts | 161° |
| 2026-05-01 11:04 | 27.31645 | 105.88256 | 40718 ft | 503 kts | 161° |
| 2026-05-01 11:04 | 27.25330 | 105.91650 | 40713 ft | 503 kts | 161° |
| 2026-05-01 11:05 | 27.19016 | 105.95041 | 40728 ft | 503 kts | 161° |
| 2026-05-01 11:05 | 27.12692 | 105.98432 | 40744 ft | 503 kts | 161° |
| 2026-05-01 11:06 | 27.06469 | 106.02058 | 40736 ft | 511 kts | 153° |
| 2026-05-01 11:06 | 27.01141 | 106.07495 | 40759 ft | 527 kts | 134° |
| 2026-05-01 11:07 | 26.94400 | 106.17324 | 40752 ft | 531 kts | 131° |
| 2026-05-01 11:07 | 26.89999 | 106.23976 | 40762 ft | 532 kts | 131° |
| 2026-05-01 11:08 | 26.85568 | 106.30593 | 40769 ft | 531 kts | 131° |
| 2026-05-01 11:09 | 26.78887 | 106.40471 | 40789 ft | 529 kts | 131° |
| 2026-05-01 11:09 | 26.74446 | 106.47020 | 40789 ft | 527 kts | 131° |
| 2026-05-01 11:10 | 26.67791 | 106.56815 | 40835 ft | 527 kts | 131° |
| 2026-05-01 11:10 | 26.63353 | 106.63336 | 40851 ft | 527 kts | 131° |
| 2026-05-01 11:11 | 26.58908 | 106.69860 | 40855 ft | 527 kts | 131° |
| 2026-05-01 11:11 | 26.54504 | 106.76315 | 40855 ft | 524 kts | 130° |
| 2026-05-01 11:12 | 26.49709 | 106.82361 | 40857 ft | 518 kts | 138° |
| 2026-05-01 11:12 | 26.44613 | 106.88045 | 40861 ft | 518 kts | 139° |
| 2026-05-01 11:13 | 26.39460 | 106.93676 | 40881 ft | 519 kts | 139° |
| 2026-05-01 11:13 | 26.34309 | 106.99301 | 40882 ft | 519 kts | 139° |
| 2026-05-01 11:14 | 26.29150 | 107.04950 | 40889 ft | 519 kts | 139° |
| 2026-05-01 11:14 | 26.24002 | 107.10609 | 40886 ft | 521 kts | 139° |
| 2026-05-01 11:15 | 26.18835 | 107.16281 | 40883 ft | 521 kts | 139° |
| 2026-05-01 11:15 | 26.13666 | 107.21949 | 40884 ft | 522 kts | 139° |
| 2026-05-01 11:16 | 26.08491 | 107.27615 | 40883 ft | 521 kts | 139° |
| 2026-05-01 11:16 | 26.03327 | 107.33264 | 40882 ft | 521 kts | 139° |
| 2026-05-01 11:17 | 25.98171 | 107.38904 | 40958 ft | 519 kts | 139° |
| 2026-05-01 11:17 | 25.93029 | 107.44528 | 40958 ft | 518 kts | 139° |
| 2026-05-01 11:18 | 25.87888 | 107.50162 | 40861 ft | 520 kts | 139° |
| 2026-05-01 11:18 | 25.82754 | 107.55823 | 40865 ft | 520 kts | 139° |
| 2026-05-01 11:19 | 25.77671 | 107.61482 | 40960 ft | 517 kts | 139° |
| 2026-05-01 11:19 | 25.72626 | 107.67179 | 40923 ft | 518 kts | 138° |
| 2026-05-01 11:20 | 25.67638 | 107.72948 | 40908 ft | 518 kts | 137° |
| 2026-05-01 11:20 | 25.62710 | 107.78767 | 40904 ft | 518 kts | 137° |
| 2026-05-01 11:21 | 25.57828 | 107.84669 | 40818 ft | 520 kts | 137° |
| 2026-05-01 11:21 | 25.52947 | 107.90607 | 40725 ft | 521 kts | 137° |
| 2026-05-01 11:22 | 25.48062 | 107.96431 | 40784 ft | 519 kts | 137° |
| 2026-05-01 11:22 | 25.43171 | 108.02281 | 40904 ft | 516 kts | 137° |
| 2026-05-01 11:23 | 25.38376 | 108.08207 | 40851 ft | 518 kts | 136° |
| 2026-05-01 11:23 | 25.33693 | 108.14274 | 40798 ft | 519 kts | 135° |
| 2026-05-01 11:24 | 25.29053 | 108.20395 | 40831 ft | 518 kts | 134° |
| 2026-05-01 11:25 | 25.22179 | 108.29599 | 40854 ft | 519 kts | 133° |
| 2026-05-01 11:25 | 25.15449 | 108.39002 | 40789 ft | 521 kts | 132° |
| 2026-05-01 11:26 | 25.08835 | 108.48502 | 40779 ft | 521 kts | 132° |
| 2026-05-01 11:27 | 25.04465 | 108.54889 | 40689 ft | 523 kts | 131° |
| 2026-05-01 11:27 | 25.00206 | 108.61373 | 40773 ft | 522 kts | 130° |
| 2026-05-01 11:28 | 24.96102 | 108.67985 | 40797 ft | 523 kts | 128° |
| 2026-05-01 11:28 | 24.92204 | 108.74715 | 40719 ft | 526 kts | 126° |
| 2026-05-01 11:29 | 24.86776 | 108.85263 | 40684 ft | 528 kts | 122° |
| 2026-05-01 11:30 | 24.81777 | 108.96078 | 40725 ft | 529 kts | 120° |
| 2026-05-01 11:30 | 24.78651 | 109.03405 | 40720 ft | 529 kts | 118° |
| 2026-05-01 11:31 | 24.75679 | 109.10858 | 40542 ft | 533 kts | 116° |
| 2026-05-01 11:31 | 24.72933 | 109.18438 | 40615 ft | 531 kts | 114° |
| 2026-05-01 11:31 | 24.71663 | 109.22197 | 40758 ft | 529 kts | 113° |
| 2026-05-01 11:32 | 24.70430 | 109.25985 | 40856 ft | 527 kts | 112° |
| 2026-05-01 11:32 | 24.68071 | 109.33633 | 40742 ft | 530 kts | 111° |
| 2026-05-01 11:32 | 24.66934 | 109.37508 | 40613 ft | 534 kts | 111° |
| 2026-05-01 11:33 | 24.65829 | 109.41410 | 40536 ft | 535 kts | 110° |
| 2026-05-01 11:33 | 24.63738 | 109.49248 | 40654 ft | 532 kts | 108° |
| 2026-05-01 11:33 | 24.62762 | 109.53157 | 40830 ft | 528 kts | 108° |
| 2026-05-01 11:34 | 24.61835 | 109.57058 | 40915 ft | 527 kts | 107° |
| 2026-05-01 11:34 | 24.60096 | 109.64907 | 40749 ft | 532 kts | 106° |
| 2026-05-01 11:34 | 24.59270 | 109.68880 | 40616 ft | 535 kts | 105° |
| 2026-05-01 11:35 | 24.58741 | 109.71528 | 40564 ft | 536 kts | 105° |
| 2026-05-01 11:35 | 24.56990 | 109.80885 | 40722 ft | 532 kts | 103° |
| 2026-05-01 11:36 | 24.55834 | 109.87490 | 40914 ft | 528 kts | 103° |
| 2026-05-01 11:36 | 24.54315 | 109.96739 | 40767 ft | 532 kts | 102° |
| 2026-05-01 11:36 | 24.53706 | 110.00759 | 40645 ft | 535 kts | 101° |
| 2026-05-01 11:37 | 24.53312 | 110.03484 | 40608 ft | 536 kts | 101° |
| 2026-05-01 11:37 | 24.52231 | 110.11565 | 40755 ft | 532 kts | 99° |
| 2026-05-01 11:37 | 24.51755 | 110.15590 | 40883 ft | 529 kts | 99° |
| 2026-05-01 11:38 | 24.51324 | 110.19600 | 40929 ft | 529 kts | 98° |
| 2026-05-01 11:38 | 24.50546 | 110.27647 | 40773 ft | 533 kts | 97° |
| 2026-05-01 11:38 | 24.50192 | 110.31714 | 40670 ft | 535 kts | 97° |
| 2026-05-01 11:39 | 24.49865 | 110.35794 | 40649 ft | 536 kts | 96° |
| 2026-05-01 11:39 | 24.49293 | 110.43875 | 40801 ft | 532 kts | 95° |
| 2026-05-01 11:40 | 24.48811 | 110.51956 | 40927 ft | 529 kts | 95° |
| 2026-05-01 11:40 | 24.48426 | 110.60021 | 40956 ft | 528 kts | 94° |
| 2026-05-01 11:41 | 24.47774 | 110.68061 | 40759 ft | 531 kts | 99° |
| 2026-05-01 11:41 | 24.46586 | 110.76059 | 40674 ft | 531 kts | 103° |
| 2026-05-01 11:41 | 24.45860 | 110.80027 | 40778 ft | 527 kts | 104° |
| 2026-05-01 11:42 | 24.45061 | 110.83942 | 40892 ft | 524 kts | 105° |
| 2026-05-01 11:42 | 24.43266 | 110.91673 | 40991 ft | 522 kts | 107° |
| 2026-05-01 11:43 | 24.41270 | 110.99366 | 40792 ft | 527 kts | 108° |
| 2026-05-01 11:43 | 24.40224 | 111.03228 | 40689 ft | 528 kts | 109° |
| 2026-05-01 11:43 | 24.39167 | 111.07087 | 40689 ft | 528 kts | 109° |
| 2026-05-01 11:44 | 24.37060 | 111.14773 | 40900 ft | 524 kts | 108° |
| 2026-05-01 11:44 | 24.36027 | 111.18589 | 40947 ft | 523 kts | 108° |
| 2026-05-01 11:44 | 24.33948 | 111.26237 | 40862 ft | 525 kts | 109° |
| 2026-05-01 11:45 | 24.31799 | 111.33909 | 40753 ft | 527 kts | 109° |
| 2026-05-01 11:45 | 24.29618 | 111.41564 | 40864 ft | 525 kts | 109° |
| 2026-05-01 11:46 | 24.27660 | 111.48451 | 40947 ft | 523 kts | 109° |
| 2026-05-01 11:46 | 24.25529 | 111.56086 | 40849 ft | 526 kts | 108° |
| 2026-05-01 11:47 | 24.23496 | 111.63389 | 40815 ft | 526 kts | 109° |